sensor_id;sensor_type;location;lat;lon;timestamp;P1;durP1;ratioP1;P2;durP2;ratioP2
15331;SDS011;7766;51.534;6.722;2022-07-25T00:00:04;11.43;;;8.25;;
15331;SDS011;7766;51.534;6.722;2022-07-25T00:01:05;9.77;;;7.97;;
15331;SDS011;7766;51.534;6.722;2022-07-25T00:02:06;11.55;;;8.57;;
15331;SDS011;7766;51.534;6.722;2022-07-25T00:03:07;8.57;;;7.68;;
15331;SDS011;7766;51.534;6.722;2022-07-25T00:04:08;9.38;;;8.48;;
15331;SDS011;7766;51.534;6.722;2022-07-25T00:05:10;9.55;;;7.68;;
15331;SDS011;7766;51.534;6.722;2022-07-25T00:06:11;8.50;;;7.60;;
15331;SDS011;7766;51.534;6.722;2022-07-25T00:07:12;8.77;;;7.88;;
15331;SDS011;7766;51.534;6.722;2022-07-25T00:08:13;9.35;;;7.65;;
15331;SDS011;7766;51.534;6.722;2022-07-25T00:09:14;8.27;;;7.32;;
15331;SDS011;7766;51.534;6.722;2022-07-25T00:10:15;9.80;;;7.82;;
15331;SDS011;7766;51.534;6.722;2022-07-25T00:11:16;10.35;;;7.65;;
15331;SDS011;7766;51.534;6.722;2022-07-25T00:12:17;11.65;;;8.20;;
15331;SDS011;7766;51.534;6.722;2022-07-25T00:13:18;11.93;;;7.43;;
15331;SDS011;7766;51.534;6.722;2022-07-25T00:14:19;8.73;;;7.40;;
15331;SDS011;7766;51.534;6.722;2022-07-25T00:15:20;7.95;;;6.97;;
15331;SDS011;7766;51.534;6.722;2022-07-25T00:16:20;8.85;;;7.22;;
15331;SDS011;7766;51.534;6.722;2022-07-25T00:17:21;7.45;;;6.75;;
15331;SDS011;7766;51.534;6.722;2022-07-25T00:18:22;8.20;;;7.45;;
15331;SDS011;7766;51.534;6.722;2022-07-25T00:19:22;11.25;;;7.35;;
15331;SDS011;7766;51.534;6.722;2022-07-25T00:20:23;10.15;;;7.03;;
15331;SDS011;7766;51.534;6.722;2022-07-25T00:21:24;8.90;;;8.00;;
15331;SDS011;7766;51.534;6.722;2022-07-25T00:22:25;8.93;;;8.02;;
15331;SDS011;7766;51.534;6.722;2022-07-25T00:23:26;8.68;;;7.18;;
15331;SDS011;7766;51.534;6.722;2022-07-25T00:24:27;9.40;;;8.20;;
15331;SDS011;7766;51.534;6.722;2022-07-25T00:25:28;8.18;;;7.38;;
15331;SDS011;7766;51.534;6.722;2022-07-25T00:26:29;8.70;;;7.60;;
15331;SDS011;7766;51.534;6.722;2022-07-25T00:27:30;7.93;;;7.13;;
15331;SDS011;7766;51.534;6.722;2022-07-25T00:28:31;8.00;;;7.03;;
15331;SDS011;7766;51.534;6.722;2022-07-25T00:29:32;8.50;;;7.70;;
15331;SDS011;7766;51.534;6.722;2022-07-25T00:30:32;8.18;;;7.38;;
15331;SDS011;7766;51.534;6.722;2022-07-25T00:31:34;7.50;;;6.75;;
15331;SDS011;7766;51.534;6.722;2022-07-25T00:32:35;8.15;;;7.43;;
15331;SDS011;7766;51.534;6.722;2022-07-25T00:33:36;8.25;;;7.30;;
15331;SDS011;7766;51.534;6.722;2022-07-25T00:34:39;8.95;;;8.05;;
15331;SDS011;7766;51.534;6.722;2022-07-25T00:35:39;8.25;;;7.45;;
15331;SDS011;7766;51.534;6.722;2022-07-25T00:36:40;7.55;;;6.75;;
15331;SDS011;7766;51.534;6.722;2022-07-25T00:37:41;8.52;;;7.47;;
15331;SDS011;7766;51.534;6.722;2022-07-25T00:38:41;8.65;;;6.95;;
15331;SDS011;7766;51.534;6.722;2022-07-25T00:39:42;8.80;;;7.90;;
15331;SDS011;7766;51.534;6.722;2022-07-25T00:40:43;8.50;;;7.00;;
15331;SDS011;7766;51.534;6.722;2022-07-25T00:41:44;7.72;;;6.93;;
15331;SDS011;7766;51.534;6.722;2022-07-25T00:42:45;7.95;;;7.13;;
15331;SDS011;7766;51.534;6.722;2022-07-25T00:43:46;10.77;;;6.95;;
15331;SDS011;7766;51.534;6.722;2022-07-25T00:44:47;9.00;;;7.10;;
15331;SDS011;7766;51.534;6.722;2022-07-25T00:45:48;9.23;;;7.30;;
15331;SDS011;7766;51.534;6.722;2022-07-25T00:46:49;8.07;;;6.88;;
15331;SDS011;7766;51.534;6.722;2022-07-25T00:47:50;7.78;;;6.60;;
15331;SDS011;7766;51.534;6.722;2022-07-25T00:48:51;10.07;;;7.03;;
15331;SDS011;7766;51.534;6.722;2022-07-25T00:49:52;9.32;;;7.07;;
15331;SDS011;7766;51.534;6.722;2022-07-25T00:50:53;8.43;;;7.00;;
15331;SDS011;7766;51.534;6.722;2022-07-25T00:51:54;12.77;;;7.30;;
15331;SDS011;7766;51.534;6.722;2022-07-25T00:52:55;10.35;;;7.30;;
15331;SDS011;7766;51.534;6.722;2022-07-25T00:53:56;7.93;;;7.13;;
15331;SDS011;7766;51.534;6.722;2022-07-25T00:54:57;7.13;;;6.53;;
15331;SDS011;7766;51.534;6.722;2022-07-25T00:55:58;9.25;;;6.85;;
15331;SDS011;7766;51.534;6.722;2022-07-25T00:56:59;8.48;;;7.20;;
15331;SDS011;7766;51.534;6.722;2022-07-25T00:58:00;8.63;;;6.60;;
15331;SDS011;7766;51.534;6.722;2022-07-25T00:59:01;8.55;;;6.68;;
15331;SDS011;7766;51.534;6.722;2022-07-25T01:00:04;7.07;;;6.38;;
15331;SDS011;7766;51.534;6.722;2022-07-25T01:01:05;9.70;;;7.13;;
15331;SDS011;7766;51.534;6.722;2022-07-25T01:02:06;8.30;;;6.47;;
15331;SDS011;7766;51.534;6.722;2022-07-25T01:03:07;9.25;;;6.63;;
15331;SDS011;7766;51.534;6.722;2022-07-25T01:04:08;8.23;;;6.85;;
15331;SDS011;7766;51.534;6.722;2022-07-25T01:05:09;7.38;;;6.68;;
15331;SDS011;7766;51.534;6.722;2022-07-25T01:06:10;10.00;;;6.07;;
15331;SDS011;7766;51.534;6.722;2022-07-25T01:07:11;7.80;;;7.00;;
15331;SDS011;7766;51.534;6.722;2022-07-25T01:08:12;9.05;;;6.97;;
15331;SDS011;7766;51.534;6.722;2022-07-25T01:09:13;8.10;;;7.22;;
15331;SDS011;7766;51.534;6.722;2022-07-25T01:10:15;8.18;;;6.63;;
15331;SDS011;7766;51.534;6.722;2022-07-25T01:11:16;9.35;;;7.50;;
15331;SDS011;7766;51.534;6.722;2022-07-25T01:12:16;7.60;;;6.80;;
15331;SDS011;7766;51.534;6.722;2022-07-25T01:13:17;7.50;;;6.57;;
15331;SDS011;7766;51.534;6.722;2022-07-25T01:14:18;8.98;;;6.82;;
15331;SDS011;7766;51.534;6.722;2022-07-25T01:15:20;7.75;;;6.93;;
15331;SDS011;7766;51.534;6.722;2022-07-25T01:16:21;8.60;;;6.90;;
15331;SDS011;7766;51.534;6.722;2022-07-25T01:17:22;8.23;;;6.57;;
15331;SDS011;7766;51.534;6.722;2022-07-25T01:18:23;10.05;;;7.05;;
15331;SDS011;7766;51.534;6.722;2022-07-25T01:19:24;8.57;;;6.68;;
15331;SDS011;7766;51.534;6.722;2022-07-25T01:20:26;7.53;;;6.55;;
15331;SDS011;7766;51.534;6.722;2022-07-25T01:21:27;9.15;;;6.70;;
15331;SDS011;7766;51.534;6.722;2022-07-25T01:22:28;9.18;;;6.70;;
15331;SDS011;7766;51.534;6.722;2022-07-25T01:23:29;10.45;;;6.47;;
15331;SDS011;7766;51.534;6.722;2022-07-25T01:24:31;9.40;;;6.80;;
15331;SDS011;7766;51.534;6.722;2022-07-25T01:25:33;8.35;;;6.90;;
15331;SDS011;7766;51.534;6.722;2022-07-25T01:26:34;8.23;;;6.68;;
15331;SDS011;7766;51.534;6.722;2022-07-25T01:27:34;8.57;;;7.15;;
15331;SDS011;7766;51.534;6.722;2022-07-25T01:28:35;9.57;;;6.75;;
15331;SDS011;7766;51.534;6.722;2022-07-25T01:29:36;7.55;;;6.70;;
15331;SDS011;7766;51.534;6.722;2022-07-25T01:30:37;8.60;;;7.50;;
15331;SDS011;7766;51.534;6.722;2022-07-25T01:31:38;8.43;;;7.22;;
15331;SDS011;7766;51.534;6.722;2022-07-25T01:32:39;8.10;;;7.30;;
15331;SDS011;7766;51.534;6.722;2022-07-25T01:33:40;7.82;;;6.82;;
15331;SDS011;7766;51.534;6.722;2022-07-25T01:34:41;8.32;;;6.65;;
15331;SDS011;7766;51.534;6.722;2022-07-25T01:35:42;7.68;;;6.68;;
15331;SDS011;7766;51.534;6.722;2022-07-25T01:36:43;7.28;;;6.55;;
15331;SDS011;7766;51.534;6.722;2022-07-25T01:37:44;7.82;;;6.85;;
15331;SDS011;7766;51.534;6.722;2022-07-25T01:38:45;8.55;;;7.07;;
15331;SDS011;7766;51.534;6.722;2022-07-25T01:39:46;12.40;;;9.60;;
15331;SDS011;7766;51.534;6.722;2022-07-25T01:40:46;12.65;;;10.20;;
15331;SDS011;7766;51.534;6.722;2022-07-25T01:41:47;12.85;;;10.75;;
15331;SDS011;7766;51.534;6.722;2022-07-25T01:42:47;19.67;;;17.58;;
15331;SDS011;7766;51.534;6.722;2022-07-25T01:43:48;12.65;;;9.45;;
15331;SDS011;7766;51.534;6.722;2022-07-25T01:44:49;9.60;;;8.43;;
15331;SDS011;7766;51.534;6.722;2022-07-25T01:45:50;9.30;;;8.32;;
15331;SDS011;7766;51.534;6.722;2022-07-25T01:46:51;9.27;;;8.20;;
15331;SDS011;7766;51.534;6.722;2022-07-25T01:47:52;8.48;;;6.97;;
15331;SDS011;7766;51.534;6.722;2022-07-25T01:48:53;10.75;;;7.47;;
15331;SDS011;7766;51.534;6.722;2022-07-25T01:49:54;9.32;;;6.55;;
15331;SDS011;7766;51.534;6.722;2022-07-25T01:50:55;7.88;;;6.40;;
15331;SDS011;7766;51.534;6.722;2022-07-25T01:51:56;10.07;;;7.22;;
15331;SDS011;7766;51.534;6.722;2022-07-25T01:52:57;10.05;;;7.05;;
15331;SDS011;7766;51.534;6.722;2022-07-25T01:53:58;7.72;;;6.70;;
15331;SDS011;7766;51.534;6.722;2022-07-25T01:54:59;7.97;;;7.18;;
15331;SDS011;7766;51.534;6.722;2022-07-25T01:56:00;7.47;;;6.68;;
15331;SDS011;7766;51.534;6.722;2022-07-25T01:57:01;8.55;;;7.05;;
15331;SDS011;7766;51.534;6.722;2022-07-25T01:58:02;11.02;;;6.80;;
15331;SDS011;7766;51.534;6.722;2022-07-25T01:59:03;9.07;;;6.97;;
15331;SDS011;7766;51.534;6.722;2022-07-25T02:00:05;8.90;;;6.85;;
15331;SDS011;7766;51.534;6.722;2022-07-25T02:01:07;9.05;;;7.07;;
15331;SDS011;7766;51.534;6.722;2022-07-25T02:02:09;8.18;;;6.65;;
15331;SDS011;7766;51.534;6.722;2022-07-25T02:03:10;7.93;;;6.82;;
15331;SDS011;7766;51.534;6.722;2022-07-25T02:04:29;8.43;;;6.45;;
15331;SDS011;7766;51.534;6.722;2022-07-25T02:05:30;9.50;;;7.03;;
15331;SDS011;7766;51.534;6.722;2022-07-25T02:06:31;10.02;;;7.30;;
15331;SDS011;7766;51.534;6.722;2022-07-25T02:07:34;8.82;;;6.78;;
15331;SDS011;7766;51.534;6.722;2022-07-25T02:08:35;8.43;;;6.85;;
15331;SDS011;7766;51.534;6.722;2022-07-25T02:09:35;7.53;;;6.82;;
15331;SDS011;7766;51.534;6.722;2022-07-25T02:10:36;7.25;;;6.60;;
15331;SDS011;7766;51.534;6.722;2022-07-25T02:11:37;10.43;;;7.03;;
15331;SDS011;7766;51.534;6.722;2022-07-25T02:12:38;9.70;;;7.20;;
15331;SDS011;7766;51.534;6.722;2022-07-25T02:13:39;7.43;;;6.70;;
15331;SDS011;7766;51.534;6.722;2022-07-25T02:14:40;7.82;;;7.03;;
15331;SDS011;7766;51.534;6.722;2022-07-25T02:15:41;8.20;;;6.85;;
15331;SDS011;7766;51.534;6.722;2022-07-25T02:16:42;15.88;;;6.82;;
15331;SDS011;7766;51.534;6.722;2022-07-25T02:17:43;9.20;;;7.22;;
15331;SDS011;7766;51.534;6.722;2022-07-25T02:18:44;13.57;;;7.22;;
15331;SDS011;7766;51.534;6.722;2022-07-25T02:19:44;8.02;;;6.60;;
15331;SDS011;7766;51.534;6.722;2022-07-25T02:20:46;8.05;;;6.90;;
15331;SDS011;7766;51.534;6.722;2022-07-25T02:21:47;9.25;;;6.90;;
15331;SDS011;7766;51.534;6.722;2022-07-25T02:22:48;9.43;;;7.30;;
15331;SDS011;7766;51.534;6.722;2022-07-25T02:23:49;7.40;;;6.63;;
15331;SDS011;7766;51.534;6.722;2022-07-25T02:24:49;9.05;;;7.43;;
15331;SDS011;7766;51.534;6.722;2022-07-25T02:25:50;8.27;;;6.85;;
15331;SDS011;7766;51.534;6.722;2022-07-25T02:26:51;8.88;;;7.05;;
15331;SDS011;7766;51.534;6.722;2022-07-25T02:27:52;8.48;;;6.15;;
15331;SDS011;7766;51.534;6.722;2022-07-25T02:28:52;7.45;;;6.68;;
15331;SDS011;7766;51.534;6.722;2022-07-25T02:29:53;10.50;;;7.32;;
15331;SDS011;7766;51.534;6.722;2022-07-25T02:30:54;9.55;;;7.15;;
15331;SDS011;7766;51.534;6.722;2022-07-25T02:31:55;8.30;;;6.80;;
15331;SDS011;7766;51.534;6.722;2022-07-25T02:32:56;8.07;;;7.28;;
15331;SDS011;7766;51.534;6.722;2022-07-25T02:33:56;7.80;;;6.63;;
15331;SDS011;7766;51.534;6.722;2022-07-25T02:34:57;8.73;;;6.95;;
15331;SDS011;7766;51.534;6.722;2022-07-25T02:35:58;8.25;;;6.20;;
15331;SDS011;7766;51.534;6.722;2022-07-25T02:36:59;10.25;;;6.55;;
15331;SDS011;7766;51.534;6.722;2022-07-25T02:38:00;12.10;;;6.82;;
15331;SDS011;7766;51.534;6.722;2022-07-25T02:39:01;9.13;;;6.93;;
15331;SDS011;7766;51.534;6.722;2022-07-25T02:40:02;9.45;;;6.82;;
15331;SDS011;7766;51.534;6.722;2022-07-25T02:41:03;7.38;;;6.68;;
15331;SDS011;7766;51.534;6.722;2022-07-25T02:42:04;9.18;;;7.35;;
15331;SDS011;7766;51.534;6.722;2022-07-25T02:43:06;7.95;;;7.15;;
15331;SDS011;7766;51.534;6.722;2022-07-25T02:44:07;9.57;;;7.30;;
15331;SDS011;7766;51.534;6.722;2022-07-25T02:45:08;10.10;;;7.70;;
15331;SDS011;7766;51.534;6.722;2022-07-25T02:46:09;7.97;;;7.03;;
15331;SDS011;7766;51.534;6.722;2022-07-25T02:47:10;12.07;;;7.95;;
15331;SDS011;7766;51.534;6.722;2022-07-25T02:48:10;10.80;;;7.70;;
15331;SDS011;7766;51.534;6.722;2022-07-25T02:49:11;13.95;;;8.18;;
15331;SDS011;7766;51.534;6.722;2022-07-25T02:50:12;13.65;;;8.38;;
15331;SDS011;7766;51.534;6.722;2022-07-25T02:51:13;11.35;;;8.48;;
15331;SDS011;7766;51.534;6.722;2022-07-25T02:52:14;11.60;;;8.55;;
15331;SDS011;7766;51.534;6.722;2022-07-25T02:53:15;14.00;;;8.27;;
15331;SDS011;7766;51.534;6.722;2022-07-25T02:54:16;12.50;;;9.00;;
15331;SDS011;7766;51.534;6.722;2022-07-25T02:55:17;11.68;;;8.63;;
15331;SDS011;7766;51.534;6.722;2022-07-25T02:56:17;12.38;;;8.75;;
15331;SDS011;7766;51.534;6.722;2022-07-25T02:57:18;15.27;;;9.40;;
15331;SDS011;7766;51.534;6.722;2022-07-25T02:58:19;12.65;;;8.30;;
15331;SDS011;7766;51.534;6.722;2022-07-25T02:59:20;11.23;;;9.48;;
15331;SDS011;7766;51.534;6.722;2022-07-25T03:00:21;15.40;;;8.88;;
15331;SDS011;7766;51.534;6.722;2022-07-25T03:01:22;14.00;;;9.18;;
15331;SDS011;7766;51.534;6.722;2022-07-25T03:02:23;14.52;;;10.57;;
15331;SDS011;7766;51.534;6.722;2022-07-25T03:03:24;12.27;;;9.35;;
15331;SDS011;7766;51.534;6.722;2022-07-25T03:04:25;12.57;;;10.07;;
15331;SDS011;7766;51.534;6.722;2022-07-25T03:05:26;15.60;;;10.07;;
15331;SDS011;7766;51.534;6.722;2022-07-25T03:06:27;12.60;;;9.60;;
15331;SDS011;7766;51.534;6.722;2022-07-25T03:07:28;14.32;;;10.77;;
15331;SDS011;7766;51.534;6.722;2022-07-25T03:08:29;15.68;;;10.48;;
15331;SDS011;7766;51.534;6.722;2022-07-25T03:09:31;15.35;;;9.85;;
15331;SDS011;7766;51.534;6.722;2022-07-25T03:10:32;15.02;;;10.32;;
15331;SDS011;7766;51.534;6.722;2022-07-25T03:11:33;16.67;;;10.65;;
15331;SDS011;7766;51.534;6.722;2022-07-25T03:12:34;14.57;;;10.45;;
15331;SDS011;7766;51.534;6.722;2022-07-25T03:13:35;17.13;;;10.73;;
15331;SDS011;7766;51.534;6.722;2022-07-25T03:14:35;16.90;;;10.67;;
15331;SDS011;7766;51.534;6.722;2022-07-25T03:15:36;12.52;;;9.52;;
15331;SDS011;7766;51.534;6.722;2022-07-25T03:16:37;13.30;;;10.13;;
15331;SDS011;7766;51.534;6.722;2022-07-25T03:17:38;15.10;;;10.40;;
15331;SDS011;7766;51.534;6.722;2022-07-25T03:18:39;13.73;;;10.10;;
15331;SDS011;7766;51.534;6.722;2022-07-25T03:19:40;13.45;;;10.07;;
15331;SDS011;7766;51.534;6.722;2022-07-25T03:20:41;13.20;;;9.43;;
15331;SDS011;7766;51.534;6.722;2022-07-25T03:21:42;14.77;;;8.63;;
15331;SDS011;7766;51.534;6.722;2022-07-25T03:22:44;13.65;;;10.35;;
15331;SDS011;7766;51.534;6.722;2022-07-25T03:23:44;13.40;;;9.20;;
15331;SDS011;7766;51.534;6.722;2022-07-25T03:24:45;13.20;;;8.93;;
15331;SDS011;7766;51.534;6.722;2022-07-25T03:25:46;13.48;;;9.43;;
15331;SDS011;7766;51.534;6.722;2022-07-25T03:26:47;13.50;;;8.43;;
15331;SDS011;7766;51.534;6.722;2022-07-25T03:27:49;12.30;;;8.63;;
15331;SDS011;7766;51.534;6.722;2022-07-25T03:28:49;11.35;;;9.25;;
15331;SDS011;7766;51.534;6.722;2022-07-25T03:29:50;12.50;;;9.32;;
15331;SDS011;7766;51.534;6.722;2022-07-25T03:30:53;13.80;;;9.60;;
15331;SDS011;7766;51.534;6.722;2022-07-25T03:31:54;12.18;;;9.50;;
15331;SDS011;7766;51.534;6.722;2022-07-25T03:32:55;12.70;;;8.30;;
15331;SDS011;7766;51.534;6.722;2022-07-25T03:33:56;9.38;;;8.20;;
15331;SDS011;7766;51.534;6.722;2022-07-25T03:34:56;16.23;;;9.38;;
15331;SDS011;7766;51.534;6.722;2022-07-25T03:35:57;15.35;;;8.95;;
15331;SDS011;7766;51.534;6.722;2022-07-25T03:36:58;11.93;;;8.75;;
15331;SDS011;7766;51.534;6.722;2022-07-25T03:37:59;12.23;;;8.50;;
15331;SDS011;7766;51.534;6.722;2022-07-25T03:39:00;12.20;;;9.77;;
15331;SDS011;7766;51.534;6.722;2022-07-25T03:40:01;10.80;;;8.07;;
15331;SDS011;7766;51.534;6.722;2022-07-25T03:41:02;13.35;;;9.88;;
15331;SDS011;7766;51.534;6.722;2022-07-25T03:42:03;12.18;;;8.07;;
15331;SDS011;7766;51.534;6.722;2022-07-25T03:43:04;13.80;;;8.90;;
15331;SDS011;7766;51.534;6.722;2022-07-25T03:44:04;9.95;;;8.18;;
15331;SDS011;7766;51.534;6.722;2022-07-25T03:45:05;11.30;;;7.88;;
15331;SDS011;7766;51.534;6.722;2022-07-25T03:46:07;9.93;;;8.13;;
15331;SDS011;7766;51.534;6.722;2022-07-25T03:47:07;10.52;;;8.30;;
15331;SDS011;7766;51.534;6.722;2022-07-25T03:48:08;11.45;;;8.40;;
15331;SDS011;7766;51.534;6.722;2022-07-25T03:49:09;12.50;;;8.52;;
15331;SDS011;7766;51.534;6.722;2022-07-25T03:50:10;10.93;;;7.90;;
15331;SDS011;7766;51.534;6.722;2022-07-25T03:51:11;10.45;;;8.43;;
15331;SDS011;7766;51.534;6.722;2022-07-25T03:52:12;12.27;;;8.65;;
15331;SDS011;7766;51.534;6.722;2022-07-25T03:53:13;12.90;;;8.73;;
15331;SDS011;7766;51.534;6.722;2022-07-25T03:54:14;12.93;;;8.05;;
15331;SDS011;7766;51.534;6.722;2022-07-25T03:55:15;10.38;;;7.35;;
15331;SDS011;7766;51.534;6.722;2022-07-25T03:56:16;10.65;;;7.90;;
15331;SDS011;7766;51.534;6.722;2022-07-25T03:57:17;10.50;;;7.85;;
15331;SDS011;7766;51.534;6.722;2022-07-25T03:58:17;9.50;;;7.53;;
15331;SDS011;7766;51.534;6.722;2022-07-25T03:59:19;9.43;;;7.80;;
15331;SDS011;7766;51.534;6.722;2022-07-25T04:00:20;11.40;;;7.70;;
15331;SDS011;7766;51.534;6.722;2022-07-25T04:01:21;9.55;;;7.45;;
15331;SDS011;7766;51.534;6.722;2022-07-25T04:02:22;9.25;;;7.80;;
15331;SDS011;7766;51.534;6.722;2022-07-25T04:03:23;12.77;;;7.68;;
15331;SDS011;7766;51.534;6.722;2022-07-25T04:04:24;10.60;;;7.30;;
15331;SDS011;7766;51.534;6.722;2022-07-25T04:05:25;9.18;;;7.80;;
15331;SDS011;7766;51.534;6.722;2022-07-25T04:06:26;9.30;;;8.30;;
15331;SDS011;7766;51.534;6.722;2022-07-25T04:07:27;9.00;;;7.50;;
15331;SDS011;7766;51.534;6.722;2022-07-25T04:08:28;14.05;;;7.68;;
15331;SDS011;7766;51.534;6.722;2022-07-25T04:09:29;9.98;;;7.43;;
15331;SDS011;7766;51.534;6.722;2022-07-25T04:10:30;10.90;;;7.90;;
15331;SDS011;7766;51.534;6.722;2022-07-25T04:11:32;9.48;;;7.93;;
15331;SDS011;7766;51.534;6.722;2022-07-25T04:12:34;12.27;;;8.35;;
15331;SDS011;7766;51.534;6.722;2022-07-25T04:13:36;11.00;;;7.78;;
15331;SDS011;7766;51.534;6.722;2022-07-25T04:14:37;9.82;;;7.15;;
15331;SDS011;7766;51.534;6.722;2022-07-25T04:15:38;13.13;;;7.65;;
15331;SDS011;7766;51.534;6.722;2022-07-25T04:16:39;13.25;;;7.68;;
15331;SDS011;7766;51.534;6.722;2022-07-25T04:17:40;10.65;;;7.70;;
15331;SDS011;7766;51.534;6.722;2022-07-25T04:18:41;10.85;;;7.25;;
15331;SDS011;7766;51.534;6.722;2022-07-25T04:19:42;11.05;;;7.28;;
15331;SDS011;7766;51.534;6.722;2022-07-25T04:20:43;9.38;;;7.63;;
15331;SDS011;7766;51.534;6.722;2022-07-25T04:21:44;9.68;;;7.65;;
15331;SDS011;7766;51.534;6.722;2022-07-25T04:22:45;8.88;;;7.13;;
15331;SDS011;7766;51.534;6.722;2022-07-25T04:23:46;10.30;;;7.68;;
15331;SDS011;7766;51.534;6.722;2022-07-25T04:24:47;9.93;;;7.22;;
15331;SDS011;7766;51.534;6.722;2022-07-25T04:25:48;9.15;;;7.43;;
15331;SDS011;7766;51.534;6.722;2022-07-25T04:26:49;23.17;;;19.00;;
15331;SDS011;7766;51.534;6.722;2022-07-25T04:27:50;12.43;;;8.90;;
15331;SDS011;7766;51.534;6.722;2022-07-25T04:28:50;8.98;;;7.80;;
15331;SDS011;7766;51.534;6.722;2022-07-25T04:29:51;9.27;;;6.88;;
15331;SDS011;7766;51.534;6.722;2022-07-25T04:30:52;8.90;;;7.47;;
15331;SDS011;7766;51.534;6.722;2022-07-25T04:31:53;10.88;;;6.95;;
15331;SDS011;7766;51.534;6.722;2022-07-25T04:32:54;11.93;;;7.45;;
15331;SDS011;7766;51.534;6.722;2022-07-25T04:33:55;12.38;;;8.68;;
15331;SDS011;7766;51.534;6.722;2022-07-25T04:34:56;9.85;;;7.57;;
15331;SDS011;7766;51.534;6.722;2022-07-25T04:35:57;7.72;;;6.82;;
15331;SDS011;7766;51.534;6.722;2022-07-25T04:36:58;10.65;;;7.50;;
15331;SDS011;7766;51.534;6.722;2022-07-25T04:37:58;8.10;;;7.10;;
15331;SDS011;7766;51.534;6.722;2022-07-25T04:38:59;12.48;;;7.38;;
15331;SDS011;7766;51.534;6.722;2022-07-25T04:40:00;9.52;;;7.20;;
15331;SDS011;7766;51.534;6.722;2022-07-25T04:41:01;10.85;;;7.07;;
15331;SDS011;7766;51.534;6.722;2022-07-25T04:42:02;8.45;;;6.97;;
15331;SDS011;7766;51.534;6.722;2022-07-25T04:43:04;9.23;;;7.63;;
15331;SDS011;7766;51.534;6.722;2022-07-25T04:44:05;10.05;;;6.85;;
15331;SDS011;7766;51.534;6.722;2022-07-25T04:45:06;10.00;;;7.38;;
15331;SDS011;7766;51.534;6.722;2022-07-25T04:46:08;7.47;;;6.65;;
15331;SDS011;7766;51.534;6.722;2022-07-25T04:47:08;8.68;;;6.75;;
15331;SDS011;7766;51.534;6.722;2022-07-25T04:48:09;12.43;;;6.40;;
15331;SDS011;7766;51.534;6.722;2022-07-25T04:49:10;12.68;;;7.13;;
15331;SDS011;7766;51.534;6.722;2022-07-25T04:50:11;8.45;;;7.57;;
15331;SDS011;7766;51.534;6.722;2022-07-25T04:51:12;10.93;;;7.03;;
15331;SDS011;7766;51.534;6.722;2022-07-25T04:52:13;10.95;;;7.10;;
15331;SDS011;7766;51.534;6.722;2022-07-25T04:53:14;9.90;;;6.95;;
15331;SDS011;7766;51.534;6.722;2022-07-25T04:54:15;9.30;;;6.72;;
15331;SDS011;7766;51.534;6.722;2022-07-25T04:55:16;10.30;;;7.20;;
15331;SDS011;7766;51.534;6.722;2022-07-25T04:56:17;11.45;;;7.13;;
15331;SDS011;7766;51.534;6.722;2022-07-25T04:57:18;8.40;;;6.97;;
15331;SDS011;7766;51.534;6.722;2022-07-25T04:58:19;9.20;;;6.63;;
15331;SDS011;7766;51.534;6.722;2022-07-25T04:59:20;8.70;;;7.22;;
15331;SDS011;7766;51.534;6.722;2022-07-25T05:00:21;9.38;;;7.10;;
15331;SDS011;7766;51.534;6.722;2022-07-25T05:01:22;8.25;;;7.18;;
15331;SDS011;7766;51.534;6.722;2022-07-25T05:02:23;9.38;;;6.57;;
15331;SDS011;7766;51.534;6.722;2022-07-25T05:03:24;12.73;;;7.38;;
15331;SDS011;7766;51.534;6.722;2022-07-25T05:04:25;8.75;;;6.68;;
15331;SDS011;7766;51.534;6.722;2022-07-25T05:05:27;11.77;;;7.53;;
15331;SDS011;7766;51.534;6.722;2022-07-25T05:06:28;9.27;;;6.45;;
15331;SDS011;7766;51.534;6.722;2022-07-25T05:07:29;9.80;;;7.13;;
15331;SDS011;7766;51.534;6.722;2022-07-25T05:08:30;12.23;;;7.13;;
15331;SDS011;7766;51.534;6.722;2022-07-25T05:09:31;9.20;;;6.85;;
15331;SDS011;7766;51.534;6.722;2022-07-25T05:10:31;10.45;;;6.53;;
15331;SDS011;7766;51.534;6.722;2022-07-25T05:11:32;10.50;;;7.32;;
15331;SDS011;7766;51.534;6.722;2022-07-25T05:12:33;9.90;;;7.35;;
15331;SDS011;7766;51.534;6.722;2022-07-25T05:13:35;9.10;;;6.93;;
15331;SDS011;7766;51.534;6.722;2022-07-25T05:14:35;8.68;;;7.30;;
15331;SDS011;7766;51.534;6.722;2022-07-25T05:15:36;10.13;;;6.72;;
15331;SDS011;7766;51.534;6.722;2022-07-25T05:16:37;12.48;;;7.13;;
15331;SDS011;7766;51.534;6.722;2022-07-25T05:17:38;11.43;;;7.32;;
15331;SDS011;7766;51.534;6.722;2022-07-25T05:18:39;12.20;;;7.38;;
15331;SDS011;7766;51.534;6.722;2022-07-25T05:19:40;11.00;;;7.10;;
15331;SDS011;7766;51.534;6.722;2022-07-25T05:20:41;10.18;;;7.00;;
15331;SDS011;7766;51.534;6.722;2022-07-25T05:21:41;8.18;;;6.72;;
15331;SDS011;7766;51.534;6.722;2022-07-25T05:22:42;10.75;;;6.82;;
15331;SDS011;7766;51.534;6.722;2022-07-25T05:23:43;7.90;;;7.10;;
15331;SDS011;7766;51.534;6.722;2022-07-25T05:24:44;7.63;;;6.28;;
15331;SDS011;7766;51.534;6.722;2022-07-25T05:25:45;13.65;;;7.40;;
15331;SDS011;7766;51.534;6.722;2022-07-25T05:26:46;10.02;;;7.05;;
15331;SDS011;7766;51.534;6.722;2022-07-25T05:27:46;9.82;;;6.90;;
15331;SDS011;7766;51.534;6.722;2022-07-25T05:28:47;10.15;;;7.55;;
15331;SDS011;7766;51.534;6.722;2022-07-25T05:29:48;10.25;;;6.78;;
15331;SDS011;7766;51.534;6.722;2022-07-25T05:30:49;9.48;;;6.40;;
15331;SDS011;7766;51.534;6.722;2022-07-25T05:31:50;8.95;;;6.10;;
15331;SDS011;7766;51.534;6.722;2022-07-25T05:32:51;10.93;;;6.90;;
15331;SDS011;7766;51.534;6.722;2022-07-25T05:33:52;10.23;;;7.22;;
15331;SDS011;7766;51.534;6.722;2022-07-25T05:34:53;8.52;;;6.45;;
15331;SDS011;7766;51.534;6.722;2022-07-25T05:35:53;12.95;;;6.65;;
15331;SDS011;7766;51.534;6.722;2022-07-25T05:36:54;7.97;;;6.97;;
15331;SDS011;7766;51.534;6.722;2022-07-25T05:37:55;10.13;;;6.55;;
15331;SDS011;7766;51.534;6.722;2022-07-25T05:38:56;13.35;;;6.57;;
15331;SDS011;7766;51.534;6.722;2022-07-25T05:39:57;10.23;;;6.40;;
15331;SDS011;7766;51.534;6.722;2022-07-25T05:40:58;12.05;;;6.78;;
15331;SDS011;7766;51.534;6.722;2022-07-25T05:41:59;9.00;;;6.65;;
15331;SDS011;7766;51.534;6.722;2022-07-25T05:43:00;16.52;;;6.55;;
15331;SDS011;7766;51.534;6.722;2022-07-25T05:44:01;8.88;;;5.85;;
15331;SDS011;7766;51.534;6.722;2022-07-25T05:45:02;14.77;;;6.15;;
15331;SDS011;7766;51.534;6.722;2022-07-25T05:46:03;8.45;;;5.88;;
15331;SDS011;7766;51.534;6.722;2022-07-25T05:47:09;14.70;;;7.40;;
15331;SDS011;7766;51.534;6.722;2022-07-25T05:48:10;16.98;;;6.10;;
15331;SDS011;7766;51.534;6.722;2022-07-25T05:49:11;13.35;;;6.80;;
15331;SDS011;7766;51.534;6.722;2022-07-25T05:50:12;11.68;;;6.05;;
15331;SDS011;7766;51.534;6.722;2022-07-25T05:51:12;7.82;;;6.03;;
15331;SDS011;7766;51.534;6.722;2022-07-25T05:52:13;10.02;;;6.40;;
15331;SDS011;7766;51.534;6.722;2022-07-25T05:53:14;11.88;;;6.10;;
15331;SDS011;7766;51.534;6.722;2022-07-25T05:54:15;9.95;;;6.20;;
15331;SDS011;7766;51.534;6.722;2022-07-25T05:55:16;7.80;;;6.15;;
15331;SDS011;7766;51.534;6.722;2022-07-25T05:56:17;8.32;;;6.20;;
15331;SDS011;7766;51.534;6.722;2022-07-25T05:57:18;10.18;;;6.43;;
15331;SDS011;7766;51.534;6.722;2022-07-25T05:58:19;9.65;;;6.00;;
15331;SDS011;7766;51.534;6.722;2022-07-25T05:59:20;12.98;;;6.47;;
15331;SDS011;7766;51.534;6.722;2022-07-25T06:00:21;16.13;;;6.97;;
15331;SDS011;7766;51.534;6.722;2022-07-25T06:01:22;8.05;;;6.07;;
15331;SDS011;7766;51.534;6.722;2022-07-25T06:02:22;12.93;;;6.07;;
15331;SDS011;7766;51.534;6.722;2022-07-25T06:03:23;9.35;;;5.90;;
15331;SDS011;7766;51.534;6.722;2022-07-25T06:04:24;11.85;;;6.22;;
15331;SDS011;7766;51.534;6.722;2022-07-25T06:05:25;13.90;;;6.78;;
15331;SDS011;7766;51.534;6.722;2022-07-25T06:06:26;11.25;;;6.50;;
15331;SDS011;7766;51.534;6.722;2022-07-25T06:07:26;11.82;;;6.45;;
15331;SDS011;7766;51.534;6.722;2022-07-25T06:08:27;13.10;;;6.93;;
15331;SDS011;7766;51.534;6.722;2022-07-25T06:09:29;7.00;;;6.20;;
15331;SDS011;7766;51.534;6.722;2022-07-25T06:10:30;9.48;;;6.65;;